createdAt,value
2022-08-22T00:02:02.981Z,1.77
2022-08-22T00:03:12.560Z,1.60
2022-08-22T00:04:50.535Z,2.78
2022-08-22T00:07:17.571Z,1.52
2022-08-22T00:09:53.441Z,2.10
2022-08-22T00:12:23.252Z,2.08
2022-08-22T00:15:31.551Z,1.63
2022-08-22T00:18:01.436Z,1.27
2022-08-22T00:20:45.137Z,2.88
2022-08-22T00:23:15.693Z,1.38
2022-08-22T00:26:03.732Z,1.75
2022-08-22T00:28:35.243Z,1.45
2022-08-22T00:31:09.504Z,1.58
2022-08-22T00:33:51.629Z,1.52
2022-08-22T00:36:27.671Z,1.80
2022-08-22T00:39:08.825Z,1.63
2022-08-22T00:41:35.952Z,1.48
2022-08-22T00:44:35.455Z,1.67
2022-08-22T00:47:36.227Z,2.30
2022-08-22T00:50:34.362Z,1.70
2022-08-22T00:53:10.679Z,1.20
2022-08-22T00:55:55.021Z,1.70
2022-08-22T00:58:30.140Z,1.40
2022-08-22T01:01:06.750Z,1.77
2022-08-22T01:03:39.895Z,1.60
2022-08-22T01:06:25.657Z,1.73
2022-08-22T01:09:01.473Z,2.20
2022-08-22T01:11:41.493Z,2.13
2022-08-22T01:14:34.366Z,1.40
2022-08-22T01:17:36.322Z,1.48
2022-08-22T01:20:26.470Z,1.02
2022-08-22T01:23:17.074Z,1.70
2022-08-22T01:26:35.325Z,1.33
2022-08-22T01:29:31.266Z,1.30
2022-08-22T01:32:04.886Z,1.10
2022-08-22T01:35:05.408Z,1.13
2022-08-22T01:38:05.035Z,1.40
2022-08-22T01:40:54.063Z,1.30
2022-08-22T01:43:58.876Z,1.38
2022-08-22T01:46:23.286Z,1.23
2022-08-22T01:48:52.739Z,1.70
2022-08-22T01:51:26.955Z,1.90
2022-08-22T01:54:12.927Z,1.98
2022-08-22T01:56:44.889Z,1.60
2022-08-22T01:59:15.177Z,1.70
2022-08-22T02:01:52.471Z,1.55
2022-08-22T02:04:32.096Z,1.77
2022-08-22T02:07:08.876Z,1.10
2022-08-22T02:10:06.324Z,1.48
2022-08-22T02:12:41.967Z,1.73
2022-08-22T02:15:09.115Z,1.50
2022-08-22T02:17:50.941Z,2.20
2022-08-22T02:20:21.310Z,1.30
2022-08-22T02:22:57.168Z,1.73
2022-08-22T02:25:25.961Z,2.03
2022-08-22T02:27:57.397Z,1.30
2022-08-22T02:30:44.613Z,1.40
2022-08-22T02:33:30.905Z,0.93
2022-08-22T02:36:13.242Z,0.90
2022-08-22T02:39:00.109Z,1.50
2022-08-22T02:41:31.881Z,1.30
2022-08-22T02:44:05.409Z,1.25
2022-08-22T02:46:42.685Z,1.08
2022-08-22T02:49:13.032Z,1.70
2022-08-22T02:51:51.990Z,1.30
2022-08-22T02:54:21.379Z,1.30
2022-08-22T02:57:14.523Z,1.67
2022-08-22T03:00:01.006Z,1.30
2022-08-22T03:02:59.178Z,1.67
2022-08-22T03:05:40.331Z,1.17
2022-08-22T03:08:31.170Z,1.55
2022-08-22T03:11:03.339Z,1.15
2022-08-22T03:13:38.359Z,1.83
2022-08-22T03:16:11.685Z,1.15
2022-08-22T03:19:13.244Z,1.45
2022-08-22T03:22:11.356Z,1.77
2022-08-22T03:25:13.308Z,1.45
2022-08-22T03:28:00.086Z,2.58
2022-08-22T03:30:33.507Z,1.20
2022-08-22T03:33:18.882Z,1.17
2022-08-22T03:35:45.961Z,1.90
2022-08-22T03:38:21.772Z,1.23
2022-08-22T03:41:16.389Z,1.63
2022-08-22T03:44:07.461Z,2.03
2022-08-22T03:46:45.944Z,1.80
2022-08-22T03:49:46.780Z,1.20
2022-08-22T03:53:06.866Z,2.00
2022-08-22T03:56:19.329Z,1.58
2022-08-22T03:59:34.001Z,1.40
2022-08-22T04:02:43.620Z,1.33
2022-08-22T04:05:40.463Z,1.67
2022-08-22T04:08:26.142Z,1.20
2022-08-22T04:11:21.557Z,1.55
2022-08-22T04:14:09.991Z,2.15
2022-08-22T04:16:43.072Z,1.60
2022-08-22T04:19:29.480Z,1.73
2022-08-22T04:21:56.050Z,1.60
2022-08-22T04:24:35.243Z,1.67
2022-08-22T04:27:05.163Z,1.48
2022-08-22T04:29:36.181Z,1.58
2022-08-22T04:32:12.792Z,1.50
2022-08-22T04:34:50.953Z,2.10
2022-08-22T04:37:42.139Z,1.90
2022-08-22T04:40:21.811Z,1.95
2022-08-22T04:43:03.659Z,2.20
2022-08-22T04:45:42.206Z,1.38
2022-08-22T04:48:33.601Z,2.22
2022-08-22T04:51:12.476Z,1.90
2022-08-22T04:54:13.372Z,1.80
2022-08-22T04:56:43.370Z,1.92
2022-08-22T04:59:17.801Z,1.67
2022-08-22T05:01:46.951Z,2.33
2022-08-22T05:04:20.193Z,2.08
2022-08-22T05:06:57.856Z,2.38
2022-08-22T05:09:30.246Z,1.98
2022-08-22T05:12:00.250Z,1.80
2022-08-22T05:14:36.867Z,1.73
2022-08-22T05:17:07.178Z,1.88
2022-08-22T05:19:35.950Z,1.90
2022-08-22T05:22:04.922Z,1.60
2022-08-22T05:24:44.678Z,1.63
2022-08-22T05:27:14.217Z,2.75
2022-08-22T05:29:43.540Z,2.20
2022-08-22T05:32:24.759Z,2.20
2022-08-22T05:34:52.660Z,2.20
2022-08-22T05:37:29.819Z,2.53
2022-08-22T05:39:58.934Z,2.20
2022-08-22T05:42:29.212Z,2.03
2022-08-22T05:44:56.038Z,1.83
2022-08-22T05:47:27.239Z,1.90
2022-08-22T05:50:02.194Z,1.90
2022-08-22T05:52:40.799Z,2.25
2022-08-22T05:55:38.490Z,1.92
2022-08-22T05:58:20.212Z,1.85
2022-08-22T06:00:49.544Z,2.50
2022-08-22T06:03:16.611Z,2.30
2022-08-22T06:05:47.373Z,1.63
2022-08-22T06:08:34.829Z,2.10
2022-08-22T06:11:09.886Z,1.70
2022-08-22T06:13:42.531Z,1.65
2022-08-22T06:16:17.713Z,1.73
2022-08-22T06:18:45.854Z,2.35
2022-08-22T06:21:19.227Z,1.80
2022-08-22T06:23:51.096Z,1.30
2022-08-22T06:26:20.411Z,1.80
2022-08-22T06:28:55.467Z,2.17
2022-08-22T06:31:37.896Z,2.10
2022-08-22T06:34:30.965Z,2.13
2022-08-22T06:37:01.915Z,1.73
2022-08-22T06:39:33.922Z,1.52
2022-08-22T06:42:19.026Z,1.95
2022-08-22T06:44:51.216Z,1.95
2022-08-22T06:47:24.635Z,1.70
2022-08-22T06:49:57.065Z,1.65
2022-08-22T06:52:27.163Z,2.28
2022-08-22T06:55:02.138Z,2.25
2022-08-22T06:57:45.111Z,1.88
2022-08-22T07:00:14.935Z,2.30
2022-08-22T07:02:44.756Z,2.33
2022-08-22T07:05:22.588Z,1.98
2022-08-22T07:07:50.857Z,2.17
2022-08-22T07:10:18.319Z,2.08
2022-08-22T07:12:48.480Z,2.72
2022-08-22T07:15:37.130Z,2.30
2022-08-22T07:18:19.105Z,3.00
2022-08-22T07:20:49.421Z,2.97
2022-08-22T07:23:45.913Z,2.78
2022-08-22T07:26:27.744Z,2.47
2022-08-22T07:29:27.297Z,3.05
2022-08-22T07:32:03.241Z,2.72
2022-08-22T07:34:41.577Z,2.88
2022-08-22T07:37:17.753Z,2.47
2022-08-22T07:40:13.841Z,2.70
2022-08-22T07:42:59.055Z,2.78
2022-08-22T07:45:53.757Z,3.20
2022-08-22T07:48:28.723Z,3.53
2022-08-22T07:51:03.924Z,4.43
2022-08-22T07:53:51.438Z,4.15
2022-08-22T07:56:23.546Z,3.50
2022-08-22T07:58:55.877Z,3.85
2022-08-22T08:01:23.652Z,3.30
2022-08-22T08:03:55.646Z,3.97
2022-08-22T08:06:24.379Z,3.70
2022-08-22T08:08:52.377Z,3.83
2022-08-22T08:11:20.270Z,3.15
2022-08-22T08:13:52.940Z,4.40
2022-08-22T08:16:24.398Z,3.45
2022-08-22T08:18:56.609Z,3.65
2022-08-22T08:21:36.180Z,3.05
2022-08-22T08:24:05.718Z,3.22
2022-08-22T08:26:38.599Z,3.58
2022-08-22T08:29:08.130Z,2.90
2022-08-22T08:31:38.135Z,3.38
2022-08-22T08:34:17.089Z,2.92
2022-08-22T08:37:17.232Z,2.42
2022-08-22T08:39:50.584Z,3.65
2022-08-22T08:42:17.734Z,2.88
2022-08-22T08:45:13.292Z,2.50
2022-08-22T08:47:47.931Z,3.38
2022-08-22T08:50:35.477Z,3.42
2022-08-22T08:53:43.210Z,2.15
2022-08-22T08:56:47.145Z,2.33
2022-08-22T08:59:33.052Z,2.17
2022-08-22T09:02:00.131Z,1.95
2022-08-22T09:05:01.822Z,2.47
2022-08-22T09:07:50.117Z,2.40
2022-08-22T09:10:35.979Z,2.15
2022-08-22T09:13:11.526Z,1.98
2022-08-22T09:15:42.176Z,2.58
2022-08-22T09:18:35.575Z,1.67
2022-08-22T09:21:27.965Z,1.80
2022-08-22T09:24:18.845Z,1.75
2022-08-22T09:26:57.303Z,1.85
2022-08-22T09:29:54.882Z,1.75
2022-08-22T09:32:44.769Z,1.70
2022-08-22T09:35:23.120Z,2.15
2022-08-22T09:38:37.640Z,1.75
2022-08-22T09:41:19.479Z,1.50
2022-08-22T09:43:55.565Z,1.75
2022-08-22T09:46:31.458Z,1.45
2022-08-22T09:49:17.096Z,2.38
2022-08-22T09:52:15.425Z,1.40
2022-08-22T09:55:17.467Z,1.20
2022-08-22T09:58:11.354Z,1.15
2022-08-22T10:00:58.440Z,1.48
2022-08-22T10:04:02.848Z,1.40
2022-08-22T10:06:55.690Z,1.33
2022-08-22T10:09:32.049Z,1.83
2022-08-22T10:12:06.907Z,1.77
2022-08-22T10:14:50.609Z,1.02
2022-08-22T10:17:21.726Z,1.40
2022-08-22T10:19:58.553Z,1.85
2022-08-22T10:22:30.899Z,1.13
2022-08-22T10:25:30.085Z,0.80
2022-08-22T10:28:10.610Z,0.75
2022-08-22T10:31:02.062Z,0.85
2022-08-22T10:33:57.704Z,1.27
2022-08-22T10:36:34.040Z,1.48
2022-08-22T10:39:09.511Z,0.73
2022-08-22T10:42:23.096Z,1.13
2022-08-22T10:44:59.323Z,0.80
2022-08-22T10:47:32.046Z,0.90
2022-08-22T10:50:20.101Z,1.50
2022-08-22T10:53:15.173Z,1.40
2022-08-22T10:55:44.241Z,0.90
2022-08-22T10:58:27.982Z,0.90
2022-08-22T11:00:58.487Z,0.93
2022-08-22T11:04:01.654Z,0.95
2022-08-22T11:06:38.796Z,1.20
2022-08-22T11:09:17.308Z,0.77
2022-08-22T11:11:44.369Z,1.80
2022-08-22T11:14:17.348Z,0.90
2022-08-22T11:17:30.283Z,0.90
2022-08-22T11:20:09.043Z,1.20
2022-08-22T11:22:58.088Z,1.52
2022-08-22T11:25:52.400Z,0.95
2022-08-22T11:28:33.591Z,1.08
2022-08-22T11:31:03.605Z,1.13
2022-08-22T11:33:46.445Z,1.20
2022-08-22T11:36:31.469Z,1.08
2022-08-22T11:39:24.809Z,1.02
2022-08-22T11:42:12.198Z,1.92
2022-08-22T11:44:50.156Z,1.10
2022-08-22T11:47:20.176Z,1.20
2022-08-22T11:50:00.235Z,1.58
2022-08-22T11:52:51.749Z,1.13
2022-08-22T11:55:22.306Z,1.50
2022-08-22T11:57:57.104Z,1.30
2022-08-22T12:00:26.751Z,1.33
2022-08-22T12:03:14.575Z,1.33
2022-08-22T12:05:51.492Z,1.00
2022-08-22T12:08:31.056Z,0.65
2022-08-22T12:11:38.976Z,0.75
2022-08-22T12:14:16.069Z,0.70
2022-08-22T12:17:10.369Z,1.45
2022-08-22T12:20:16.785Z,0.90
2022-08-22T12:23:03.309Z,0.80
2022-08-22T12:25:53.979Z,0.93
2022-08-22T12:28:43.693Z,0.75
2022-08-22T12:31:27.594Z,0.50
2022-08-22T12:34:02.591Z,1.42
2022-08-22T12:36:51.633Z,0.50
2022-08-22T12:39:18.710Z,0.75
2022-08-22T12:42:09.392Z,1.15
2022-08-22T12:44:53.758Z,0.60
2022-08-22T12:47:45.100Z,0.43
2022-08-22T12:50:21.618Z,0.45
2022-08-22T12:53:10.110Z,0.68
2022-08-22T12:55:46.376Z,0.70
2022-08-22T12:58:35.576Z,0.60
2022-08-22T13:01:06.329Z,0.60
2022-08-22T13:03:51.236Z,0.50
2022-08-22T13:06:38.443Z,0.50
2022-08-22T13:09:43.388Z,0.52
2022-08-22T13:12:19.823Z,0.47
2022-08-22T13:14:48.774Z,0.90
2022-08-22T13:17:24.629Z,0.50
2022-08-22T13:19:55.637Z,1.27
2022-08-22T13:22:29.676Z,0.50
2022-08-22T13:25:05.545Z,0.30
2022-08-22T13:27:51.373Z,0.50
2022-08-22T13:30:44.553Z,0.50
2022-08-22T13:33:25.718Z,1.05
2022-08-22T13:35:54.730Z,0.70
2022-08-22T13:38:28.380Z,0.50
2022-08-22T13:40:57.047Z,0.57
2022-08-22T13:43:53.304Z,0.38
2022-08-22T13:46:26.224Z,0.63
2022-08-22T13:49:00.714Z,0.50
2022-08-22T13:51:46.635Z,0.70
2022-08-22T13:54:16.238Z,0.60
2022-08-22T13:56:59.922Z,0.80
2022-08-22T13:59:54.853Z,0.40
2022-08-22T14:02:45.736Z,0.60
2022-08-22T14:05:14.852Z,1.15
2022-08-22T14:07:48.771Z,0.60
2022-08-22T14:10:25.780Z,1.10
2022-08-22T14:12:56.933Z,1.08
2022-08-22T14:15:32.239Z,0.70
2022-08-22T14:18:13.115Z,0.60
2022-08-22T14:20:41.311Z,0.57
2022-08-22T14:23:11.529Z,0.60
2022-08-22T14:25:40.721Z,0.93
2022-08-22T14:28:28.061Z,1.77
2022-08-22T14:31:08.348Z,0.60
2022-08-22T14:33:40.091Z,2.10
2022-08-22T14:36:19.995Z,0.70
2022-08-22T14:38:53.342Z,0.95
2022-08-22T14:41:26.605Z,0.85
2022-08-22T14:44:07.871Z,1.27
2022-08-22T14:46:56.557Z,0.47
2022-08-22T14:49:33.785Z,0.95
2022-08-22T14:52:04.791Z,0.60
2022-08-22T14:54:32.945Z,1.65
2022-08-22T14:57:01.198Z,0.50
2022-08-22T14:59:40.477Z,1.42
2022-08-22T15:02:29.375Z,0.55
2022-08-22T15:04:56.940Z,1.02
2022-08-22T15:07:30.898Z,1.63
2022-08-22T15:10:03.544Z,0.90
2022-08-22T15:12:35.225Z,0.73
2022-08-22T15:15:11.756Z,0.70
2022-08-22T15:17:39.915Z,0.77
2022-08-22T15:20:38.225Z,0.80
2022-08-22T15:23:20.316Z,0.50
2022-08-22T15:25:56.821Z,1.00
2022-08-22T15:28:24.855Z,0.52
2022-08-22T15:31:03.504Z,1.00
2022-08-22T15:33:39.989Z,0.57
2022-08-22T15:36:27.301Z,0.60
2022-08-22T15:38:56.038Z,1.25
2022-08-22T15:41:23.309Z,0.55
2022-08-22T15:44:01.149Z,1.35
2022-08-22T15:46:54.337Z,0.43
2022-08-22T15:49:21.416Z,0.75
2022-08-22T15:52:00.849Z,1.02
2022-08-22T15:54:46.928Z,0.70
2022-08-22T15:57:32.130Z,0.55
2022-08-22T16:00:03.238Z,0.90
2022-08-22T16:02:53.980Z,1.73
2022-08-22T16:05:27.272Z,0.70
2022-08-22T16:08:26.733Z,1.15
2022-08-22T16:10:56.752Z,1.05
2022-08-22T16:13:26.857Z,0.50
2022-08-22T16:16:13.016Z,1.08
2022-08-22T16:18:40.168Z,0.98
2022-08-22T16:21:08.368Z,0.90
2022-08-22T16:23:53.639Z,0.82
2022-08-22T16:26:29.238Z,1.30
2022-08-22T16:29:01.571Z,1.20
2022-08-22T16:31:37.017Z,0.70
2022-08-22T16:34:16.429Z,0.77
2022-08-22T16:36:49.204Z,0.50
2022-08-22T16:39:22.336Z,0.98
2022-08-22T16:41:51.781Z,0.73
2022-08-22T16:44:30.408Z,0.75
2022-08-22T16:47:11.065Z,0.73
2022-08-22T16:49:54.696Z,0.77
2022-08-22T16:52:22.290Z,0.95
2022-08-22T16:54:59.901Z,0.68
2022-08-22T16:57:59.337Z,0.65
2022-08-22T17:00:58.064Z,0.50
2022-08-22T17:03:38.966Z,0.70
2022-08-22T17:06:43.201Z,0.85
2022-08-22T17:09:22.220Z,0.70
2022-08-22T17:12:01.351Z,1.10
2022-08-22T17:15:00.961Z,1.05
2022-08-22T17:17:51.403Z,1.20
2022-08-22T17:20:46.601Z,0.70
2022-08-22T17:23:16.012Z,0.60
2022-08-22T17:25:54.165Z,1.10
2022-08-22T17:28:36.017Z,0.50
2022-08-22T17:31:16.104Z,0.50
2022-08-22T17:34:01.913Z,0.77
2022-08-22T17:36:42.046Z,0.60
2022-08-22T17:39:30.313Z,0.52
2022-08-22T17:42:03.431Z,0.60
2022-08-22T17:44:38.673Z,0.47
2022-08-22T17:47:19.173Z,0.70
2022-08-22T17:49:49.742Z,0.82
2022-08-22T17:52:27.356Z,0.90
2022-08-22T17:55:03.194Z,1.30
2022-08-22T17:57:34.031Z,0.70
2022-08-22T18:00:15.900Z,0.57
2022-08-22T18:03:08.796Z,1.40
2022-08-22T18:05:46.016Z,0.80
2022-08-22T18:11:21.309Z,0.40
2022-08-22T18:13:54.018Z,1.02
2022-08-22T18:16:27.667Z,0.60
2022-08-22T18:18:56.132Z,1.42
2022-08-22T18:21:31.961Z,0.57
2022-08-22T18:24:05.797Z,0.50
2022-08-22T18:26:42.589Z,0.60
2022-08-22T18:29:13.634Z,0.45
2022-08-22T18:31:53.167Z,0.57
2022-08-22T18:34:40.686Z,0.32
2022-08-22T18:37:17.061Z,1.65
2022-08-22T18:39:59.735Z,1.02
2022-08-22T18:42:36.831Z,1.20
2022-08-22T18:45:04.235Z,0.70
2022-08-22T18:47:33.029Z,0.50
2022-08-22T18:50:02.039Z,0.70
2022-08-22T18:52:29.089Z,1.08
2022-08-22T18:55:01.502Z,0.70
2022-08-22T18:57:50.126Z,0.80
2022-08-22T19:00:21.470Z,0.70
2022-08-22T19:02:57.335Z,1.25
2022-08-22T19:05:24.416Z,0.80
2022-08-22T19:07:55.326Z,1.00
2022-08-22T19:10:48.340Z,0.70
2022-08-22T19:13:39.073Z,1.05
2022-08-22T19:16:06.246Z,1.25
2022-08-22T19:18:50.744Z,0.75
2022-08-22T19:21:52.905Z,0.57
2022-08-22T19:24:19.514Z,1.58
2022-08-22T19:27:18.391Z,0.93
2022-08-22T19:29:45.446Z,1.25
2022-08-22T19:32:32.488Z,0.80
2022-08-22T19:35:18.555Z,0.60
2022-08-22T19:37:56.209Z,0.70
2022-08-22T19:40:58.632Z,0.60
2022-08-22T19:43:36.838Z,1.35
2022-08-22T19:46:08.148Z,0.75
2022-08-22T19:48:50.288Z,0.77
2022-08-22T19:51:22.533Z,0.70
2022-08-22T19:54:01.350Z,1.35
2022-08-22T19:56:40.555Z,0.70
2022-08-22T19:59:34.434Z,0.70
2022-08-22T20:02:19.413Z,0.88
2022-08-22T20:05:03.776Z,1.13
2022-08-22T20:08:21.732Z,1.20
2022-08-22T20:10:55.709Z,1.42
2022-08-22T20:13:32.247Z,1.48
2022-08-22T20:16:02.509Z,1.00
2022-08-22T20:19:06.603Z,1.10
2022-08-22T20:21:59.889Z,0.95
2022-08-22T20:24:49.126Z,0.75
2022-08-22T20:27:20.237Z,1.10
2022-08-22T20:29:52.885Z,0.90
2022-08-22T20:32:21.443Z,1.60
2022-08-22T20:34:50.217Z,1.00
2022-08-22T20:37:35.995Z,1.05
2022-08-22T20:40:33.497Z,0.93
2022-08-22T20:43:19.321Z,1.05
2022-08-22T20:45:54.653Z,1.60
2022-08-22T20:48:21.758Z,1.05
2022-08-22T20:50:48.925Z,1.63
2022-08-22T20:53:19.498Z,0.88
2022-08-22T20:55:54.850Z,1.50
2022-08-22T20:58:24.978Z,0.95
2022-08-22T21:00:56.358Z,1.08
2022-08-22T21:03:29.585Z,0.85
2022-08-22T21:05:56.422Z,0.90
2022-08-22T21:08:26.386Z,0.80
2022-08-22T21:11:21.022Z,1.77
2022-08-22T21:13:48.598Z,1.65
2022-08-22T21:16:17.419Z,1.30
2022-08-22T21:18:48.118Z,1.55
2022-08-22T21:21:18.249Z,1.30
2022-08-22T21:24:11.092Z,2.42
2022-08-22T21:26:58.997Z,1.73
2022-08-22T21:29:32.728Z,0.70
2022-08-22T21:32:16.142Z,0.93
2022-08-22T21:34:47.530Z,1.35
2022-08-22T21:37:17.995Z,1.00
2022-08-22T21:39:49.793Z,1.45
2022-08-22T21:42:29.248Z,0.82
2022-08-22T21:44:58.140Z,0.82
2022-08-22T21:47:30.566Z,0.90
2022-08-22T21:50:15.471Z,0.88
2022-08-22T21:52:59.635Z,1.15
2022-08-22T21:55:28.758Z,0.85
2022-08-22T21:58:06.493Z,1.75
2022-08-22T22:01:00.910Z,1.00
2022-08-22T22:03:31.234Z,1.23
2022-08-22T22:06:00.265Z,1.20
2022-08-22T22:08:29.163Z,1.30
2022-08-22T22:10:58.216Z,1.33
2022-08-22T22:13:27.134Z,1.00
2022-08-22T22:15:55.747Z,1.27
2022-08-22T22:18:27.212Z,1.20
2022-08-22T22:20:55.037Z,1.80
2022-08-22T22:23:22.459Z,1.55
2022-08-22T22:25:50.146Z,1.20
2022-08-22T22:28:22.874Z,1.50
2022-08-22T22:30:51.380Z,1.40
2022-08-22T22:33:19.255Z,1.70
2022-08-22T22:35:46.261Z,1.73
2022-08-22T22:38:13.650Z,1.45
2022-08-22T22:40:41.501Z,1.10
2022-08-22T22:43:10.089Z,1.00
2022-08-22T22:45:37.411Z,1.35
2022-08-22T22:48:05.366Z,1.30
2022-08-22T22:50:32.456Z,1.20
2022-08-22T22:52:59.531Z,1.10
2022-08-22T22:55:26.162Z,1.30
2022-08-22T22:57:58.614Z,1.38
2022-08-22T23:00:30.641Z,1.10
2022-08-22T23:03:02.203Z,1.70
2022-08-22T23:05:30.020Z,1.13
2022-08-22T23:07:57.690Z,1.80
2022-08-22T23:10:24.842Z,1.70
2022-08-22T23:12:52.029Z,1.38
2022-08-22T23:15:19.218Z,1.10
2022-08-22T23:17:46.161Z,1.20
2022-08-22T23:20:13.512Z,1.50
2022-08-22T23:22:42.786Z,0.95
2022-08-22T23:25:09.746Z,1.10
2022-08-22T23:27:37.102Z,0.80
2022-08-22T23:30:05.533Z,1.20
2022-08-22T23:32:32.601Z,1.05
2022-08-22T23:34:59.668Z,1.00
2022-08-22T23:37:26.335Z,1.17
2022-08-22T23:39:53.450Z,1.38
2022-08-22T23:42:20.231Z,1.13
2022-08-22T23:44:47.416Z,1.50
2022-08-22T23:47:15.260Z,1.13
2022-08-22T23:49:42.772Z,1.15
2022-08-22T23:52:10.555Z,1.30
2022-08-22T23:54:37.705Z,1.63
2022-08-22T23:57:11.595Z,1.40
2022-08-22T23:59:44.606Z,1.30
